Aviation Digital Data Service (ADDS)

Output produced by METARs form (0327 UTC 19 August 2019)
found at http://www.aviationweather.gov/metar/data/
 
METAR text: VLSK 190300Z 24004KT 8000 SCT020 SCT050 SCT100 30/24 Q1009 NOSIG
Conditions at: VLSK (SAVANNAKHET(CV/M, LA) observed 0300 UTC 19 August 2019
Temperature: 30.0°C (86°F)
Dewpoint: 24.0°C (75°F) [RH = 70%]
Pressure (altimeter): 29.79 inches Hg (1009.0 mb)
Winds: from the WSW (240 degrees) at 5 MPH (4 knots; 2.1 m/s)
Visibility: 5 miles ( 8 km)
Ceiling: at least 12,000 feet AGL
Clouds: scattered clouds at 2000 feet AGL
scattered clouds at 5000 feet AGL
scattered clouds at 10000 feet AGL
Weather: no significant weather observed at this time

METAR text: VLSK 190200Z 18002KT 7000 FEW020 SCT050 SCT100 29/25 Q1009 NOSIG
Conditions at: VLSK (SAVANNAKHET(CV/M, LA) observed 0200 UTC 19 August 2019
Temperature: 29.0°C (84°F)
Dewpoint: 25.0°C (77°F) [RH = 79%]
Pressure (altimeter): 29.79 inches Hg (1009.0 mb)
Winds: from the S (180 degrees) at 2 MPH (2 knots; 1.0 m/s)
Visibility: 4 miles ( 7 km)
Ceiling: at least 12,000 feet AGL
Clouds: few clouds at 2000 feet AGL
scattered clouds at 5000 feet AGL
scattered clouds at 10000 feet AGL
Weather: no significant weather observed at this time

METAR text: VLSK 190100Z 20002KT 6000 FEW016 SCT040 BKN093 28/25 Q1009 NOSIG
Conditions at: VLSK (SAVANNAKHET(CV/M, LA) observed 0100 UTC 19 August 2019
Temperature: 28.0°C (82°F)
Dewpoint: 25.0°C (77°F) [RH = 84%]
Pressure (altimeter): 29.79 inches Hg (1009.0 mb)
Winds: from the SSW (200 degrees) at 2 MPH (2 knots; 1.0 m/s)
Visibility: 4 miles ( 6 km)
Ceiling: 9300 feet AGL
Clouds: few clouds at 1600 feet AGL
scattered clouds at 4000 feet AGL
broken clouds at 9300 feet AGL
Weather: no significant weather observed at this time

METAR text: VLSK 190000Z 18002KT 3000 BR FEW016 SCT040 BKN093 27/24 Q1008 NOSIG
Conditions at: VLSK (SAVANNAKHET(CV/M, LA) observed 0000 UTC 19 August 2019
Temperature: 27.0°C (81°F)
Dewpoint: 24.0°C (75°F) [RH = 84%]
Pressure (altimeter): 29.76 inches Hg (1008.0 mb)
Winds: from the S (180 degrees) at 2 MPH (2 knots; 1.0 m/s)
Visibility: 1.86 miles (2.99 km)
Ceiling: 9300 feet AGL
Clouds: few clouds at 1600 feet AGL
scattered clouds at 4000 feet AGL
broken clouds at 9300 feet AGL
Weather: BR  (mist)

METAR text: VLSK 181000Z 22002KT 7000 SCT020 BKN100 32/23 Q1006 NOSIG
Conditions at: VLSK (SAVANNAKHET(CV/M, LA) observed 1000 UTC 18 August 2019
Temperature: 32.0°C (90°F)
Dewpoint: 23.0°C (73°F) [RH = 59%]
Pressure (altimeter): 29.70 inches Hg (1006.0 mb)
Winds: from the SW (220 degrees) at 2 MPH (2 knots; 1.0 m/s)
Visibility: 4 miles ( 7 km)
Ceiling: 10000 feet AGL
Clouds: scattered clouds at 2000 feet AGL
broken clouds at 10000 feet AGL
Weather: no significant weather observed at this time

METAR text: VLSK 180900Z 22004KT 7000 SCT020 BKN100 32/23 Q1007 NOSIG
Conditions at: VLSK (SAVANNAKHET(CV/M, LA) observed 0900 UTC 18 August 2019
Temperature: 32.0°C (90°F)
Dewpoint: 23.0°C (73°F) [RH = 59%]
Pressure (altimeter): 29.73 inches Hg (1007.0 mb)
Winds: from the SW (220 degrees) at 5 MPH (4 knots; 2.1 m/s)
Visibility: 4 miles ( 7 km)
Ceiling: 10000 feet AGL
Clouds: scattered clouds at 2000 feet AGL
broken clouds at 10000 feet AGL
Weather: no significant weather observed at this time

METAR text: VLSK 180800Z 22004KT 7000 SCT020 BKN100 32/23 Q1007 NOSIG
Conditions at: VLSK (SAVANNAKHET(CV/M, LA) observed 0800 UTC 18 August 2019
Temperature: 32.0°C (90°F)
Dewpoint: 23.0°C (73°F) [RH = 59%]
Pressure (altimeter): 29.73 inches Hg (1007.0 mb)
Winds: from the SW (220 degrees) at 5 MPH (4 knots; 2.1 m/s)
Visibility: 4 miles ( 7 km)
Ceiling: 10000 feet AGL
Clouds: scattered clouds at 2000 feet AGL
broken clouds at 10000 feet AGL
Weather: no significant weather observed at this time

METAR text: VLSK 180700Z 22004KT 7000 SCT020 BKN100 32/24 Q1008 NOSIG
Conditions at: VLSK (SAVANNAKHET(CV/M, LA) observed 0700 UTC 18 August 2019
Temperature: 32.0°C (90°F)
Dewpoint: 24.0°C (75°F) [RH = 63%]
Pressure (altimeter): 29.76 inches Hg (1008.0 mb)
Winds: from the SW (220 degrees) at 5 MPH (4 knots; 2.1 m/s)
Visibility: 4 miles ( 7 km)
Ceiling: 10000 feet AGL
Clouds: scattered clouds at 2000 feet AGL
broken clouds at 10000 feet AGL
Weather: no significant weather observed at this time

METAR text: VLSK 180600Z 22006KT 7000 SCT020 BKN100 31/24 Q1009 NOSIG
Conditions at: VLSK (SAVANNAKHET(CV/M, LA) observed 0600 UTC 18 August 2019
Temperature: 31.0°C (88°F)
Dewpoint: 24.0°C (75°F) [RH = 66%]
Pressure (altimeter): 29.79 inches Hg (1009.0 mb)
Winds: from the SW (220 degrees) at 7 MPH (6 knots; 3.1 m/s)
Visibility: 4 miles ( 7 km)
Ceiling: 10000 feet AGL
Clouds: scattered clouds at 2000 feet AGL
broken clouds at 10000 feet AGL
Weather: no significant weather observed at this time

METAR text: VLSK 180500Z 22004KT 7000 SCT016 BKN093 31/25 Q1009 NOSIG
Conditions at: VLSK (SAVANNAKHET(CV/M, LA) observed 0500 UTC 18 August 2019
Temperature: 31.0°C (88°F)
Dewpoint: 25.0°C (77°F) [RH = 71%]
Pressure (altimeter): 29.79 inches Hg (1009.0 mb)
Winds: from the SW (220 degrees) at 5 MPH (4 knots; 2.1 m/s)
Visibility: 4 miles ( 7 km)
Ceiling: 9300 feet AGL
Clouds: scattered clouds at 1600 feet AGL
broken clouds at 9300 feet AGL
Weather: no significant weather observed at this time

METAR text: VLSK 180400Z 22004KT 6000 SCT020 BKN100 30/25 Q1010 NOSIG
Conditions at: VLSK (SAVANNAKHET(CV/M, LA) observed 0400 UTC 18 August 2019
Temperature: 30.0°C (86°F)
Dewpoint: 25.0°C (77°F) [RH = 75%]
Pressure (altimeter): 29.82 inches Hg (1010.0 mb)
Winds: from the SW (220 degrees) at 5 MPH (4 knots; 2.1 m/s)
Visibility: 4 miles ( 6 km)
Ceiling: 10000 feet AGL
Clouds: scattered clouds at 2000 feet AGL
broken clouds at 10000 feet AGL
Weather: no significant weather observed at this time

METAR text: VLSK 180300Z 22004KT 6000 SCT020 BKN100 29/25 Q1011 NOSIG
Conditions at: VLSK (SAVANNAKHET(CV/M, LA) observed 0300 UTC 18 August 2019
Temperature: 29.0°C (84°F)
Dewpoint: 25.0°C (77°F) [RH = 79%]
Pressure (altimeter): 29.85 inches Hg (1011.0 mb)
Winds: from the SW (220 degrees) at 5 MPH (4 knots; 2.1 m/s)
Visibility: 4 miles ( 6 km)
Ceiling: 10000 feet AGL
Clouds: scattered clouds at 2000 feet AGL
broken clouds at 10000 feet AGL
Weather: no significant weather observed at this time

METAR text: VLSK 180200Z 18004KT 5000 BR SCT020 BKN100 28/24 Q1011 NOSIG
Conditions at: VLSK (SAVANNAKHET(CV/M, LA) observed 0200 UTC 18 August 2019
Temperature: 28.0°C (82°F)
Dewpoint: 24.0°C (75°F) [RH = 79%]
Pressure (altimeter): 29.85 inches Hg (1011.0 mb)
Winds: from the S (180 degrees) at 5 MPH (4 knots; 2.1 m/s)
Visibility: 3 miles ( 5 km)
Ceiling: 10000 feet AGL
Clouds: scattered clouds at 2000 feet AGL
broken clouds at 10000 feet AGL
Weather: BR  (mist)

METAR text: VLSK 180100Z 18002KT 4000 BR SCT020 BKN100 27/24 Q1010 NOSIG
Conditions at: VLSK (SAVANNAKHET(CV/M, LA) observed 0100 UTC 18 August 2019
Temperature: 27.0°C (81°F)
Dewpoint: 24.0°C (75°F) [RH = 84%]
Pressure (altimeter): 29.82 inches Hg (1010.0 mb)
Winds: from the S (180 degrees) at 2 MPH (2 knots; 1.0 m/s)
Visibility: 2.49 miles (4.01 km)
Ceiling: 10000 feet AGL
Clouds: scattered clouds at 2000 feet AGL
broken clouds at 10000 feet AGL
Weather: BR  (mist)

Forecast for: VLSK (SAVANNAKHET(CV/M, LA)
Text: TAF VLSK 182300Z 1900/1924 22004KT 8000 SCT020 BKN100
Forecast period: 0000 UTC 19 August 2019 to 0000 UTC 20 August 2019
Forecast type: FROM: standard forecast or significant change
Winds: from the SW (220 degrees) at 5 MPH (4 knots; 2.1 m/s)
Visibility: 5 miles (8 km)
Ceiling: 10000 feet AGL
Clouds: scattered clouds at 2000 feet AGL
broken clouds at 10000 feet AGL
Weather: no significant weather forecast for this period